< Typhoon 197122 1971 Season Typhoon 197124 >
Typhoon 197123 (TRIX)
General InformationTrack Information on Google Maps || NewsDisaster Info.ResourceGoogle EarthGE AnimationAtom FeedGeoJSON
Detalied Best Track (Time Zone = UTC)
Year Month Day Hour Lat. Long. Pressure (hPa) Wind (kt) Class Image Chart
1971 8 19 00 22.0 153.0 1008 0 2 -- Chart
1971 8 19 06 22.1 152.7 1006 0 2 -- Chart
1971 8 19 12 22.2 152.5 1004 0 2 -- Chart
1971 8 19 18 22.3 152.3 1000 0 2 -- Chart
1971 8 20 00 22.4 152.3 996 0 2 -- Chart
1971 8 20 06 22.6 152.4 996 0 2 -- Chart
1971 8 20 12 22.7 152.5 994 0 2 -- Chart
1971 8 20 18 23.1 152.6 994 0 2 -- Chart
1971 8 21 00 23.3 152.6 990 0 9 -- Chart
1971 8 21 06 23.9 152.2 985 0 9 -- Chart
1971 8 21 12 24.6 152.0 985 0 9 -- Chart
1971 8 21 18 25.0 151.8 975 0 9 -- Chart
1971 8 22 00 25.4 151.3 970 0 9 -- Chart
1971 8 22 06 25.7 150.8 965 0 9 -- Chart
1971 8 22 12 25.7 150.7 965 0 9 -- Chart
1971 8 22 18 25.7 150.6 970 0 9 -- Chart
1971 8 23 00 25.5 150.5 965 0 9 -- Chart
1971 8 23 06 25.5 150.0 965 0 9 -- Chart
1971 8 23 12 25.5 149.0 965 0 9 -- Chart
1971 8 23 18 25.5 148.0 965 0 9 -- Chart
1971 8 24 00 25.5 147.4 960 0 9 -- Chart
1971 8 24 06 25.4 146.5 960 0 9 -- Chart
1971 8 24 12 25.3 145.7 960 0 9 -- Chart
1971 8 24 18 25.3 145.0 960 0 9 -- Chart
1971 8 25 00 25.2 144.2 960 0 9 -- Chart
1971 8 25 06 25.2 143.6 960 0 9 -- Chart
1971 8 25 12 25.2 142.8 960 0 9 -- Chart
1971 8 25 18 25.3 141.8 960 0 9 -- Chart
1971 8 26 00 25.4 140.9 960 0 9 -- Chart
1971 8 26 06 25.5 140.3 960 0 9 -- Chart
1971 8 26 12 25.6 139.4 965 0 9 -- Chart
1971 8 26 18 26.0 138.3 965 0 9 -- Chart
1971 8 27 00 26.3 137.2 965 0 9 -- Chart
1971 8 27 06 26.7 135.8 960 0 9 -- Chart
1971 8 27 12 27.0 134.7 960 0 9 -- Chart
1971 8 27 18 27.4 133.5 955 0 9 -- Chart
1971 8 28 00 27.6 132.4 955 0 9 -- Chart
1971 8 28 06 28.2 131.8 945 0 9 -- Chart
1971 8 28 12 28.8 131.2 935 0 9 -- Chart
1971 8 28 18 29.3 130.5 930 0 9 -- Chart
1971 8 29 00 29.5 130.2 920 0 9 -- Chart
1971 8 29 06 30.3 130.2 915 0 9 -- Chart
1971 8 29 12 30.8 130.5 920 0 9 -- Chart
1971 8 29 18 31.5 131.0 950 0 9 -- Chart
1971 8 30 00 32.4 131.5 970 0 9 -- Chart
1971 8 30 06 32.8 132.5 975 0 9 -- Chart
1971 8 30 12 33.6 133.8 975 0 9 -- Chart
1971 8 30 18 34.5 134.8 980 0 9 -- Chart
1971 8 31 00 34.5 136.7 985 0 9 -- Chart
1971 8 31 06 34.6 138.5 985 0 9 -- Chart
1971 8 31 12 35.7 141.8 986 0 9 -- Chart
1971 8 31 18 36.7 142.7 982 0 9 -- Chart
1971 9 1 00 37.5 144.5 980 0 9 -- Chart
1971 9 1 06 37.8 147.0 985 0 9 -- Chart
1971 9 1 12 38.0 149.5 988 0 6 -- Chart
1971 9 1 18 38.0 152.0 988 0 6 -- Chart
1971 9 2 00 38.0 154.5 988 0 6 -- Chart
1971 9 2 06 39.0 157.0 988 0 6 -- Chart
1971 9 2 12 40.0 159.0 988 0 6 -- Chart
1971 9 2 18 41.0 160.0 988 0 6 -- Chart
1971 9 3 00 42.0 161.0 984 0 6 -- Chart
1971 9 3 06 43.0 162.0 980 0 6 -- Chart
1971 9 3 12 44.0 163.0 980 0 6 -- Chart
1971 9 3 18 44.5 164.5 980 0 6 -- Chart
1971 9 4 00 45.0 166.0 980 0 6 -- Chart
1971 9 4 06 45.5 168.0 980 0 6 -- Chart
1971 9 4 12 46.0 170.0 980 0 6 -- Chart
1971 9 4 18 47.0 172.0 980 0 6 -- Chart
1971 9 5 00 48.0 175.0 984 0 6 -- Chart
1971 9 5 06 49.0 180.0 992 0 6 -- Chart
Japan Meteorological Agency Best Track Data | Correction Date : 2013-03-19
< Typhoon 197122 1971 Season Typhoon 197124 >

Help